Time;durP1;ratioP1;P1;durP2;ratioP2;P2;SDS_P1;SDS_P2;PMS_P1;PMS_P2;Temp;Humidity;BMP_temperature;BMP_pressure;BME280_temperature;BME280_humidity;BME280_pressure;Samples;Min_cycle;Max_cycle;Signal;HPM_P1;HPM_P2
2022/09/22 00:01:55;;;;;;;8.13;4.78;;;7.80;99.90;;;;;;6005549;23;20032;-95
2022/09/22 00:04:21;;;;;;;8.05;4.78;;;7.90;99.90;;;;;;5999052;23;20102;-95
2022/09/22 00:06:50;;;;;;;6.75;3.17;;;7.90;99.90;;;;;;5987955;23;20016;-96
2022/09/22 00:09:19;;;;;;;6.30;3.03;;;7.80;99.90;;;;;;5988408;23;20019;-95
2022/09/22 00:11:48;;;;;;;7.63;3.00;;;7.70;99.90;;;;;;6012247;23;20075;-95
2022/09/22 00:14:25;;;;;;;5.82;3.00;;;7.60;99.90;;;;;;6012088;23;20032;-96
2022/09/22 00:16:53;;;;;;;8.50;3.72;;;7.60;99.90;;;;;;5988288;23;20020;-95
2022/09/22 00:19:31;;;;;;;6.25;3.05;;;7.60;99.90;;;;;;5988785;23;20476;-96
2022/09/22 00:21:57;;;;;;;9.05;4.47;;;7.60;99.90;;;;;;5987541;23;20023;-95
2022/09/22 00:24:24;;;;;;;9.38;4.80;;;7.60;99.90;;;;;;6011857;23;20008;-95
2022/09/22 00:26:53;;;;;;;8.60;3.72;;;7.60;99.90;;;;;;6010430;23;20020;-95
2022/09/22 00:29:18;;;;;;;6.88;2.67;;;7.60;99.90;;;;;;5987065;23;20043;-96
2022/09/22 00:31:44;;;;;;;7.30;2.60;;;7.50;99.90;;;;;;6010842;23;20047;-95
2022/09/22 00:34:19;;;;;;;7.30;3.30;;;7.40;99.90;;;;;;6011770;23;20022;-96
2022/09/22 00:36:45;;;;;;;7.05;3.40;;;7.50;99.90;;;;;;5987091;23;20019;-95
2022/09/22 00:39:12;;;;;;;9.68;4.10;;;7.40;99.90;;;;;;5988163;23;20022;-96
2022/09/22 00:41:41;;;;;;;10.25;4.90;;;7.50;99.90;;;;;;6010866;23;20111;-95
2022/09/22 00:44:25;;;;;;;7.53;2.95;;;7.40;99.90;;;;;;5987588;23;20115;-95
2022/09/22 00:47:24;;;;;;;8.18;4.25;;;7.40;99.90;;;;;;6010475;23;20346;-96
2022/09/22 00:50:08;;;;;;;7.35;3.00;;;7.40;99.90;;;;;;6010852;23;20412;-95
2022/09/22 00:52:58;;;;;;;7.07;3.15;;;7.40;99.90;;;;;;5986675;23;20545;-95
2022/09/22 00:55:30;;;;;;;5.55;2.90;;;7.30;99.90;;;;;;5986237;23;20059;-96
2022/09/22 00:57:58;;;;;;;5.80;2.97;;;7.30;99.90;;;;;;6011141;23;20022;-96
2022/09/22 01:00:24;;;;;;;6.72;2.70;;;7.20;99.90;;;;;;5991442;23;20016;-95
2022/09/22 01:02:53;;;;;;;6.72;3.38;;;7.20;99.90;;;;;;5987554;23;20537;-95
2022/09/22 01:05:21;;;;;;;6.20;3.20;;;7.10;99.90;;;;;;5986708;23;20020;-95
2022/09/22 01:07:47;;;;;;;6.45;2.90;;;7.20;99.90;;;;;;5986917;23;20076;-96
2022/09/22 01:10:13;;;;;;;7.95;4.43;;;7.10;99.90;;;;;;6011087;23;20020;-94
2022/09/22 01:12:52;;;;;;;6.60;2.58;;;7.20;99.90;;;;;;5987084;23;20051;-95
2022/09/22 01:15:35;;;;;;;5.88;2.75;;;7.10;99.90;;;;;;6009549;23;20020;-94
2022/09/22 01:18:12;;;;;;;6.03;2.92;;;7.10;99.90;;;;;;5985973;23;20059;-95
2022/09/22 01:21:02;;;;;;;9.85;3.22;;;7.10;99.90;;;;;;6010285;23;20012;-95
2022/09/22 01:23:55;;;;;;;6.93;3.33;;;7.00;99.90;;;;;;6009995;23;20116;-95
2022/09/22 01:26:31;;;;;;;7.72;2.85;;;7.00;99.90;;;;;;6009968;23;20015;-95
2022/09/22 01:29:21;;;;;;;6.40;2.40;;;7.10;99.90;;;;;;5986296;23;20016;-96
2022/09/22 01:32:15;;;;;;;5.65;2.67;;;6.90;99.90;;;;;;5985969;23;20022;-94
2022/09/22 01:34:56;;;;;;;6.82;2.30;;;6.90;99.90;;;;;;5985956;23;20087;-94
2022/09/22 01:37:36;;;;;;;5.17;2.17;;;6.90;99.90;;;;;;5985950;23;20016;-95
2022/09/22 01:40:15;;;;;;;9.27;2.70;;;6.90;99.90;;;;;;5986390;23;20140;-95
2022/09/22 01:42:50;;;;;;;8.25;3.78;;;6.90;99.90;;;;;;5987364;23;20018;-95
2022/09/22 01:45:20;;;;;;;7.50;2.50;;;6.90;99.90;;;;;;6010216;23;20439;-95
2022/09/22 01:48:01;;;;;;;6.50;2.60;;;6.90;99.90;;;;;;5986113;23;20023;-95
2022/09/22 01:50:34;;;;;;;7.55;3.33;;;6.80;99.90;;;;;;5985992;23;20015;-96
2022/09/22 01:53:07;;;;;;;5.45;2.25;;;6.80;99.90;;;;;;6010179;23;20026;-95
2022/09/22 01:55:37;;;;;;;6.25;2.40;;;6.80;99.90;;;;;;6010504;23;20435;-95
2022/09/22 01:58:46;;;;;;;5.20;2.10;;;6.80;99.90;;;;;;5985541;23;20023;-94
2022/09/22 02:01:15;;;;;;;4.28;1.98;;;6.70;99.90;;;;;;5985731;23;20103;-96
2022/09/22 02:03:58;;;;;;;6.47;2.30;;;6.60;99.90;;;;;;5984040;23;20404;-95
2022/09/22 02:06:38;;;;;;;5.72;2.20;;;6.60;99.90;;;;;;5986545;23;20040;-93
2022/09/22 02:09:25;;;;;;;5.13;2.13;;;6.60;99.90;;;;;;5986969;23;20052;-95
2022/09/22 02:11:51;;;;;;;5.82;2.45;;;6.60;99.90;;;;;;6009855;23;20016;-95
2022/09/22 02:14:17;;;;;;;6.22;2.45;;;6.60;99.90;;;;;;6010038;23;20311;-95
2022/09/22 02:16:43;;;;;;;7.10;2.45;;;6.60;99.90;;;;;;5986348;23;20102;-96
2022/09/22 02:19:19;;;;;;;6.47;2.50;;;6.60;99.90;;;;;;5986637;23;20011;-94
2022/09/22 02:21:47;;;;;;;6.07;2.63;;;6.60;99.90;;;;;;6010317;23;20012;-95
2022/09/22 02:24:32;;;;;;;9.57;4.00;;;6.60;99.90;;;;;;6010570;23;20058;-95
2022/09/22 02:27:25;;;;;;;7.28;3.25;;;6.60;99.90;;;;;;5986382;23;20023;-95
2022/09/22 02:29:59;;;;;;;4.75;2.30;;;6.60;99.90;;;;;;5996302;23;20468;-95
2022/09/22 02:32:25;;;;;;;6.40;2.83;;;6.60;99.90;;;;;;5986164;23;20024;-95
2022/09/22 02:34:54;;;;;;;7.13;3.03;;;6.50;99.90;;;;;;6009824;23;20023;-95
2022/09/22 02:37:25;;;;;;;6.65;2.92;;;6.50;99.90;;;;;;5987011;23;20075;-95
2022/09/22 02:40:14;;;;;;;6.07;2.47;;;6.50;99.90;;;;;;6010224;23;20151;-95
2022/09/22 02:43:12;;;;;;;7.35;2.88;;;6.50;99.90;;;;;;5901657;24;20028;-94
2022/09/22 02:45:42;;;;;;;7.05;2.83;;;6.40;99.90;;;;;;5879591;24;20094;-95
2022/09/22 02:48:31;;;;;;;4.22;2.20;;;6.40;99.90;;;;;;5879785;24;20026;-96
2022/09/22 02:50:57;;;;;;;6.57;2.58;;;6.40;99.90;;;;;;5879883;24;20100;-95
2022/09/22 02:53:23;;;;;;;8.45;4.10;;;6.30;99.90;;;;;;5879400;24;20053;-95
2022/09/22 02:55:48;;;;;;;7.63;3.15;;;6.50;99.90;;;;;;5879196;24;20131;-96
2022/09/22 02:58:15;;;;;;;7.40;3.25;;;6.40;99.90;;;;;;5902749;24;20029;-94
2022/09/22 03:00:42;;;;;;;7.32;4.13;;;6.30;99.90;;;;;;5879850;24;20097;-94
2022/09/22 03:03:09;;;;;;;7.18;4.50;;;6.40;99.90;;;;;;5880067;24;20093;-95
2022/09/22 03:05:35;;;;;;;6.70;2.70;;;6.50;99.90;;;;;;5880213;24;20033;-96
2022/09/22 03:08:01;;;;;;;7.93;3.10;;;6.40;99.90;;;;;;5903250;24;20317;-95
2022/09/22 03:10:27;;;;;;;7.13;2.60;;;6.30;99.90;;;;;;5880256;24;20025;-95
2022/09/22 03:12:53;;;;;;;7.18;2.85;;;6.30;99.90;;;;;;5879988;24;20438;-95
2022/09/22 03:15:19;;;;;;;5.47;2.60;;;6.30;99.90;;;;;;5903560;24;20021;-94
2022/09/22 03:17:46;;;;;;;5.97;2.55;;;6.20;99.90;;;;;;5903355;24;20024;-94
2022/09/22 03:20:13;;;;;;;6.25;2.90;;;6.20;99.90;;;;;;5981927;23;20016;-95
2022/09/22 03:22:39;;;;;;;6.93;3.95;;;6.20;99.90;;;;;;5988704;23;20015;-95
2022/09/22 03:25:06;;;;;;;6.90;3.03;;;6.30;99.90;;;;;;6011855;23;20083;-95
2022/09/22 03:27:31;;;;;;;7.40;2.38;;;6.20;99.90;;;;;;5988604;23;20016;-95
2022/09/22 03:29:57;;;;;;;5.97;3.00;;;6.20;99.90;;;;;;6012691;23;20090;-95
2022/09/22 03:32:23;;;;;;;5.82;2.40;;;6.20;99.90;;;;;;5989387;23;20156;-95
2022/09/22 03:34:49;;;;;;;4.68;2.35;;;6.10;99.90;;;;;;5988350;23;20008;-95
2022/09/22 03:37:15;;;;;;;6.78;2.50;;;6.10;99.90;;;;;;5990192;23;20016;-95
2022/09/22 03:39:41;;;;;;;7.10;3.10;;;6.10;99.90;;;;;;5991203;23;20038;-95
2022/09/22 03:42:07;;;;;;;6.50;2.90;;;6.10;99.90;;;;;;6012941;23;20519;-94
2022/09/22 03:44:33;;;;;;;6.82;2.60;;;6.20;99.90;;;;;;5991144;23;20045;-94
2022/09/22 03:46:59;;;;;;;7.60;2.95;;;6.10;99.90;;;;;;5992641;23;20030;-96
2022/09/22 03:49:25;;;;;;;7.25;2.83;;;6.00;99.90;;;;;;6016708;23;20020;-95
2022/09/22 03:51:50;;;;;;;7.13;3.10;;;6.00;99.90;;;;;;5992309;23;20020;-95
2022/09/22 03:54:16;;;;;;;6.32;2.70;;;6.00;99.90;;;;;;6018499;23;20012;-95
2022/09/22 03:56:42;;;;;;;6.20;3.00;;;6.00;99.90;;;;;;5993474;23;20090;-95
2022/09/22 03:59:09;;;;;;;7.45;2.70;;;6.00;99.90;;;;;;5995315;23;20083;-95
2022/09/22 04:01:34;;;;;;;8.20;2.80;;;6.00;99.90;;;;;;6018214;23;20063;-95
2022/09/22 04:04:00;;;;;;;7.72;3.28;;;5.90;99.90;;;;;;5993149;23;20019;-96
2022/09/22 04:06:26;;;;;;;8.77;3.33;;;6.00;99.90;;;;;;5995986;23;20020;-96
2022/09/22 04:08:55;;;;;;;9.93;3.85;;;6.00;99.90;;;;;;6020229;23;20461;-95
2022/09/22 04:11:22;;;;;;;7.93;3.58;;;5.90;99.90;;;;;;5997096;23;20012;-95
2022/09/22 04:13:48;;;;;;;7.70;3.30;;;5.90;99.90;;;;;;5995616;23;20060;-94
2022/09/22 04:16:14;;;;;;;6.45;3.22;;;6.00;99.90;;;;;;5997485;23;20019;-95
2022/09/22 04:18:39;;;;;;;7.93;3.63;;;5.80;99.90;;;;;;5996655;23;20094;-96
2022/09/22 04:21:06;;;;;;;7.10;3.45;;;5.90;99.90;;;;;;5995374;23;20007;-96
2022/09/22 04:23:33;;;;;;;9.68;3.45;;;5.80;99.90;;;;;;5998312;23;20473;-95
2022/09/22 04:26:00;;;;;;;7.32;3.20;;;5.80;99.90;;;;;;5997177;23;20012;-95
2022/09/22 04:28:27;;;;;;;9.15;3.80;;;5.80;99.90;;;;;;5997718;23;20016;-95
2022/09/22 04:30:53;;;;;;;9.18;5.18;;;5.80;99.90;;;;;;6022349;23;20016;-96
2022/09/22 04:33:19;;;;;;;11.18;5.07;;;5.80;99.90;;;;;;5998386;23;20035;-96
2022/09/22 04:35:47;;;;;;;8.63;4.75;;;5.80;99.90;;;;;;5998393;23;20020;-95
2022/09/22 04:38:13;;;;;;;14.27;6.18;;;5.70;99.90;;;;;;5996283;23;20027;-95
2022/09/22 04:40:39;;;;;;;8.88;5.07;;;5.70;99.90;;;;;;5991723;23;20011;-95
2022/09/22 04:43:04;;;;;;;9.40;4.57;;;5.70;99.90;;;;;;5995292;23;20300;-94
2022/09/22 04:45:30;;;;;;;11.05;4.47;;;5.70;99.90;;;;;;5997081;23;20019;-94
2022/09/22 04:47:56;;;;;;;8.13;4.22;;;5.70;99.90;;;;;;5996624;23;20036;-95
2022/09/22 04:50:22;;;;;;;7.90;4.68;;;5.80;99.90;;;;;;5995133;23;20020;-96
2022/09/22 04:52:51;;;;;;;10.45;4.93;;;5.70;99.90;;;;;;6015053;23;20017;-95
2022/09/22 04:55:17;;;;;;;13.10;9.20;;;5.70;99.90;;;;;;5989439;23;20095;-96
2022/09/22 04:57:50;;;;;;;11.05;5.60;;;5.80;99.90;;;;;;5989372;23;20048;-96
2022/09/22 05:00:17;;;;;;;10.98;6.03;;;5.80;99.90;;;;;;6012285;23;20012;-94
2022/09/22 05:02:42;;;;;;;11.32;6.63;;;5.70;99.90;;;;;;5989553;23;20016;-94
2022/09/22 05:05:08;;;;;;;9.10;4.75;;;5.80;99.90;;;;;;5987946;23;20079;-91
2022/09/22 05:07:34;;;;;;;7.35;4.07;;;5.70;99.90;;;;;;5980964;23;20019;-92
2022/09/22 05:10:01;;;;;;;8.13;4.32;;;5.80;99.90;;;;;;6005742;23;20191;-92
2022/09/22 05:12:27;;;;;;;9.05;5.07;;;5.70;99.90;;;;;;5981047;23;20015;-93
2022/09/22 05:14:53;;;;;;;8.73;4.40;;;5.70;99.90;;;;;;6004906;23;20015;-91
2022/09/22 05:17:19;;;;;;;7.35;3.60;;;5.70;99.90;;;;;;6006162;23;20152;-93
2022/09/22 05:19:45;;;;;;;7.18;3.40;;;5.60;99.90;;;;;;6006637;23;20016;-93
2022/09/22 05:22:11;;;;;;;7.47;4.07;;;5.60;99.90;;;;;;6007082;23;20090;-93
2022/09/22 05:24:37;;;;;;;7.20;3.75;;;5.60;99.90;;;;;;6007283;23;20078;-93
2022/09/22 05:27:04;;;;;;;7.63;4.10;;;5.60;99.90;;;;;;6007036;23;20016;-94
2022/09/22 05:29:30;;;;;;;8.65;4.30;;;5.60;99.90;;;;;;5982540;23;20023;-93
2022/09/22 05:31:55;;;;;;;9.80;5.68;;;5.50;99.90;;;;;;6009605;23;20030;-93
2022/09/22 05:34:21;;;;;;;8.98;5.10;;;5.60;99.90;;;;;;5983731;23;20015;-92
2022/09/22 05:36:47;;;;;;;10.20;5.45;;;5.50;99.90;;;;;;5979450;23;20016;-92
2022/09/22 05:39:12;;;;;;;11.63;6.93;;;5.50;99.90;;;;;;6003051;23;20048;-91
2022/09/22 05:41:38;;;;;;;13.52;7.15;;;5.60;99.90;;;;;;6005398;23;20020;-93
2022/09/22 05:44:04;;;;;;;14.40;6.40;;;5.60;99.90;;;;;;6005336;23;20012;-92
2022/09/22 05:46:29;;;;;;;13.07;7.32;;;5.60;99.90;;;;;;6009209;23;20012;-92
2022/09/22 05:48:55;;;;;;;15.13;7.55;;;5.60;99.90;;;;;;5980407;23;20420;-92
2022/09/22 05:51:21;;;;;;;14.35;7.95;;;5.50;99.90;;;;;;6004403;23;20011;-92
2022/09/22 05:53:46;;;;;;;13.95;7.95;;;5.60;99.90;;;;;;6003979;23;20543;-93
2022/09/22 05:56:12;;;;;;;13.88;7.43;;;5.80;99.90;;;;;;5981460;23;20307;-92
2022/09/22 05:58:38;;;;;;;13.20;7.35;;;5.70;99.90;;;;;;5980684;23;20071;-96
2022/09/22 06:01:03;;;;;;;13.45;7.75;;;5.70;99.90;;;;;;6004345;23;20015;-94
2022/09/22 06:03:29;;;;;;;15.52;13.27;;;5.80;99.90;;;;;;5982136;23;20016;-93
2022/09/22 06:05:55;;;;;;;11.60;7.68;;;5.90;99.90;;;;;;6004587;23;20015;-94
2022/09/22 06:08:21;;;;;;;15.32;9.40;;;6.00;99.90;;;;;;5980622;23;20391;-93
2022/09/22 06:10:50;;;;;;;11.50;8.02;;;6.00;99.90;;;;;;6002972;23;20387;-94
2022/09/22 06:13:15;;;;;;;13.65;8.30;;;6.00;99.90;;;;;;5980337;23;20047;-95
2022/09/22 06:15:45;;;;;;;12.70;8.98;;;6.00;99.90;;;;;;6007961;23;20011;-92
2022/09/22 06:18:12;;;;;;;17.55;15.90;;;6.10;99.90;;;;;;6003351;23;20027;-93
2022/09/22 06:20:38;;;;;;;15.85;11.02;;;6.20;99.90;;;;;;6001425;23;20020;-93
2022/09/22 06:23:03;;;;;;;15.95;10.80;;;6.20;99.90;;;;;;6004053;23;20310;-92
2022/09/22 06:25:30;;;;;;;15.68;10.95;;;6.20;99.90;;;;;;5979071;23;20399;-91
2022/09/22 06:28:00;;;;;;;13.40;8.73;;;6.30;99.90;;;;;;6002936;23;20026;-92
2022/09/22 06:30:26;;;;;;;15.15;10.20;;;6.40;99.90;;;;;;6001372;23;20076;-92
2022/09/22 06:32:55;;;;;;;15.98;10.05;;;6.50;99.90;;;;;;5977824;23;20023;-94
2022/09/22 06:35:21;;;;;;;17.67;12.60;;;6.50;99.90;;;;;;5977872;23;20221;-91
2022/09/22 06:37:50;;;;;;;14.95;10.15;;;6.60;99.90;;;;;;6002741;23;20020;-92
2022/09/22 06:40:16;;;;;;;16.80;12.00;;;6.80;99.90;;;;;;5976698;23;20024;-92
2022/09/22 06:42:41;;;;;;;18.73;11.70;;;6.80;99.90;;;;;;5976533;23;20012;-92
2022/09/22 06:45:07;;;;;;;15.10;11.35;;;6.90;99.90;;;;;;6003738;23;20019;-91
2022/09/22 06:47:33;;;;;;;22.55;20.33;;;6.90;99.90;;;;;;6003237;23;20420;-92
2022/09/22 06:50:04;;;;;;;21.63;19.63;;;7.00;99.90;;;;;;6002966;23;20446;-91
2022/09/22 06:52:31;;;;;;;20.77;14.95;;;7.20;99.90;;;;;;6003186;23;20020;-90
2022/09/22 06:54:59;;;;;;;18.05;11.77;;;7.20;99.90;;;;;;5980559;23;20834;-91
2022/09/22 06:57:31;;;;;;;18.20;14.50;;;7.20;99.90;;;;;;6006200;23;20139;-91
2022/09/22 06:59:58;;;;;;;17.45;13.55;;;7.30;99.90;;;;;;6003583;23;20027;-92
2022/09/22 07:02:28;;;;;;;17.17;12.88;;;7.40;99.90;;;;;;5978660;23;20067;-91
2022/09/22 07:04:57;;;;;;;19.90;14.43;;;7.50;99.90;;;;;;6002715;23;20047;-92
2022/09/22 07:07:30;;;;;;;18.20;12.45;;;7.60;99.90;;;;;;6002964;23;20090;-93
2022/09/22 07:09:57;;;;;;;21.33;19.40;;;7.70;99.90;;;;;;6006669;23;20042;-90
2022/09/22 07:12:24;;;;;;;17.98;14.85;;;7.80;99.90;;;;;;6006418;23;20350;-92
2022/09/22 07:14:52;;;;;;;19.75;15.20;;;7.90;99.90;;;;;;6003017;23;20031;-90
2022/09/22 07:17:21;;;;;;;15.88;11.05;;;7.90;99.90;;;;;;6005610;23;20058;-90
2022/09/22 07:19:47;;;;;;;19.30;17.35;;;8.00;99.90;;;;;;6003955;23;20015;-91
2022/09/22 07:22:17;;;;;;;16.38;13.88;;;8.20;99.90;;;;;;5980824;23;20012;-92
2022/09/22 07:24:44;;;;;;;21.30;19.10;;;8.20;99.90;;;;;;6003886;23;20136;-91
2022/09/22 07:27:11;;;;;;;20.27;18.35;;;8.40;99.90;;;;;;6004158;23;20019;-90
2022/09/22 07:29:37;;;;;;;17.75;15.05;;;8.50;99.90;;;;;;6005821;23;20031;-90
2022/09/22 07:32:03;;;;;;;16.85;13.68;;;8.50;99.90;;;;;;6003347;23;20380;-91
2022/09/22 07:34:30;;;;;;;17.10;12.40;;;8.60;99.90;;;;;;6003695;23;20016;-91
2022/09/22 07:36:56;;;;;;;20.02;18.23;;;8.70;99.90;;;;;;6005763;23;20461;-91
2022/09/22 07:39:23;;;;;;;20.58;18.65;;;8.80;99.90;;;;;;6005792;23;20024;-90
2022/09/22 07:41:49;;;;;;;21.40;19.30;;;9.00;99.90;;;;;;5980261;23;20306;-90
2022/09/22 07:47:01;;;;;;;22.48;20.23;;;9.20;99.90;;;;;;6002897;23;20023;-88
2022/09/22 07:49:27;;;;;;;19.45;15.60;;;9.30;99.90;;;;;;6005620;23;20155;-89
2022/09/22 07:51:53;;;;;;;22.20;20.00;;;9.40;99.90;;;;;;6004397;23;20111;-90
2022/09/22 07:54:19;;;;;;;20.63;18.48;;;9.50;99.90;;;;;;5981735;23;20024;-90
2022/09/22 07:56:45;;;;;;;19.60;17.67;;;9.60;99.90;;;;;;6006591;23;20020;-91
2022/09/22 07:59:14;;;;;;;20.55;18.55;;;9.60;99.90;;;;;;6006767;23;20190;-91
2022/09/22 08:01:46;;;;;;;18.80;16.95;;;9.80;99.90;;;;;;6005410;23;20024;-92
2022/09/22 08:04:17;;;;;;;19.08;17.08;;;9.90;99.90;;;;;;6006552;23;20047;-93
2022/09/22 08:06:48;;;;;;;17.83;16.02;;;9.90;99.90;;;;;;6005176;23;20072;-93
2022/09/22 08:09:14;;;;;;;17.77;15.90;;;10.10;99.90;;;;;;5982199;23;20140;-92
2022/09/22 08:11:44;;;;;;;18.60;15.90;;;10.10;99.90;;;;;;6005575;23;20016;-93
2022/09/22 08:14:11;;;;;;;17.35;15.65;;;10.30;99.90;;;;;;5981602;23;20024;-93
2022/09/22 08:16:39;;;;;;;17.90;16.20;;;10.30;99.90;;;;;;5980271;23;20095;-92
2022/09/22 08:19:13;;;;;;;18.33;16.48;;;10.40;99.90;;;;;;5980396;23;20414;-93
2022/09/22 08:21:43;;;;;;;17.50;15.82;;;10.60;99.90;;;;;;6006970;23;20011;-93
2022/09/22 08:24:12;;;;;;;17.10;15.40;;;10.60;99.90;;;;;;5981151;23;20327;-93
2022/09/22 08:26:39;;;;;;;18.23;16.52;;;10.70;99.90;;;;;;6004728;23;20107;-92
2022/09/22 08:29:06;;;;;;;16.45;14.85;;;10.80;99.90;;;;;;6003282;23;20011;-92
2022/09/22 08:31:34;;;;;;;16.50;14.70;;;10.90;99.90;;;;;;6007315;23;20012;-94
2022/09/22 08:34:00;;;;;;;16.15;14.50;;;11.00;99.90;;;;;;5983762;23;20449;-94
2022/09/22 08:36:26;;;;;;;14.18;12.77;;;11.10;99.90;;;;;;5983917;23;20323;-94
2022/09/22 08:38:58;;;;;;;14.40;13.00;;;11.20;99.90;;;;;;6008055;23;20044;-94
2022/09/22 08:41:38;;;;;;;14.75;13.18;;;11.20;99.90;;;;;;6007644;23;20012;-93
2022/09/22 08:44:09;;;;;;;15.55;14.07;;;11.30;99.90;;;;;;5984206;23;20016;-93
2022/09/22 08:46:35;;;;;;;15.05;13.43;;;11.30;99.90;;;;;;5987378;23;20024;-94
2022/09/22 08:51:52;;;;;;;14.75;13.25;;;11.70;99.90;;;;;;6006036;23;20031;-89
2022/09/22 08:54:37;;;;;;;15.30;12.88;;;11.80;99.90;;;;;;6007940;23;20020;-89
2022/09/22 08:57:32;;;;;;;14.82;11.55;;;11.90;99.90;;;;;;6006293;23;20015;-89
2022/09/22 09:00:05;;;;;;;12.93;11.30;;;12.10;99.90;;;;;;6006950;23;20040;-90
2022/09/22 09:02:51;;;;;;;12.57;10.88;;;12.20;99.90;;;;;;6005716;23;20027;-89
2022/09/22 09:05:45;;;;;;;13.00;10.73;;;12.30;99.90;;;;;;6003244;23;20035;-91
2022/09/22 09:08:24;;;;;;;12.02;10.23;;;12.30;99.90;;;;;;6007440;23;20047;-91
2022/09/22 09:11:20;;;;;;;11.35;9.98;;;12.50;99.90;;;;;;6007066;23;20059;-94
2022/09/22 09:13:57;;;;;;;12.00;9.27;;;12.60;99.90;;;;;;6004686;23;20019;-92
2022/09/22 09:16:44;;;;;;;13.65;8.85;;;12.70;99.90;;;;;;6006934;23;20399;-91
2022/09/22 09:19:14;;;;;;;12.27;8.40;;;12.80;99.90;;;;;;5983038;23;20090;-91
2022/09/22 09:21:50;;;;;;;13.20;8.50;;;12.90;99.90;;;;;;6008318;23;20012;-91
2022/09/22 09:24:26;;;;;;;11.60;8.10;;;12.90;99.90;;;;;;6005535;23;20327;-92
2022/09/22 09:26:54;;;;;;;13.63;7.75;;;13.00;99.90;;;;;;6008848;23;20023;-92
2022/09/22 09:29:23;;;;;;;11.82;7.47;;;13.10;99.90;;;;;;6006863;23;20085;-92
2022/09/22 09:31:56;;;;;;;9.90;6.85;;;13.20;99.90;;;;;;6005896;23;20024;-93
2022/09/22 09:34:27;;;;;;;10.40;7.00;;;13.20;99.90;;;;;;6005865;23;20015;-92
2022/09/22 09:37:12;;;;;;;9.90;6.70;;;13.30;99.90;;;;;;6006417;23;20015;-92
2022/09/22 09:39:40;;;;;;;9.88;5.65;;;13.40;99.90;;;;;;5983598;23;20200;-92
2022/09/22 09:42:28;;;;;;;9.18;5.20;;;13.50;99.90;;;;;;5982527;23;20107;-91
2022/09/22 09:44:56;;;;;;;10.05;5.15;;;13.60;99.90;;;;;;6006134;23;20086;-91
2022/09/22 09:47:35;;;;;;;8.40;4.72;;;13.60;99.90;;;;;;6008579;23;20023;-91
2022/09/22 09:50:02;;;;;;;8.30;4.57;;;13.60;99.90;;;;;;6005097;23;20019;-92
2022/09/22 09:52:28;;;;;;;8.65;5.15;;;13.70;99.90;;;;;;6007185;23;20019;-94
2022/09/22 09:54:54;;;;;;;8.98;4.68;;;13.80;99.90;;;;;;6007729;23;20019;-92
2022/09/22 09:57:21;;;;;;;8.40;4.57;;;13.90;99.90;;;;;;6008513;23;20015;-92
2022/09/22 10:03:09;;;;;;;7.97;4.10;;;14.00;99.90;;;;;;6005326;23;20080;-92
2022/09/22 10:05:36;;;;;;;9.50;4.28;;;14.00;99.90;;;;;;6007096;23;20023;-91
2022/09/22 10:08:22;;;;;;;9.73;4.50;;;14.20;99.90;;;;;;6007505;23;20016;-93
2022/09/22 10:10:48;;;;;;;8.45;3.90;;;14.10;99.90;;;;;;6005474;23;20342;-94
2022/09/22 10:13:22;;;;;;;10.43;4.32;;;14.20;99.90;;;;;;6007318;23;20019;-96
2022/09/22 10:16:04;;;;;;;10.38;4.10;;;14.20;99.90;;;;;;6007755;23;20016;-92
2022/09/22 10:18:32;;;;;;;8.27;3.67;;;14.20;99.90;;;;;;6007142;23;20053;-93
2022/09/22 10:21:04;;;;;;;10.98;4.38;;;14.30;99.90;;;;;;5982311;23;20023;-94
2022/09/22 10:23:31;;;;;;;9.70;4.53;;;14.30;99.90;;;;;;6007775;23;20015;-92
2022/09/22 10:26:16;;;;;;;9.18;4.88;;;14.40;99.90;;;;;;6006895;23;20019;-93
2022/09/22 10:28:41;;;;;;;9.07;5.38;;;14.50;99.90;;;;;;5982504;23;20047;-93
2022/09/22 10:31:19;;;;;;;7.60;4.40;;;14.50;99.90;;;;;;6007199;23;20023;-94
2022/09/22 10:33:59;;;;;;;8.13;4.68;;;14.50;99.90;;;;;;5984412;23;20015;-93
2022/09/22 10:36:29;;;;;;;9.43;4.25;;;14.50;99.90;;;;;;5984069;23;20020;-94
2022/09/22 10:38:55;;;;;;;8.95;4.40;;;14.50;99.90;;;;;;5984900;23;20022;-94
2022/09/22 10:41:30;;;;;;;7.25;4.13;;;14.60;99.90;;;;;;5984061;23;20016;-93
2022/09/22 10:43:59;;;;;;;9.45;4.38;;;14.50;99.90;;;;;;5985175;23;20015;-94
2022/09/22 10:46:48;;;;;;;8.18;4.13;;;14.70;99.90;;;;;;6007410;23;20072;-93
2022/09/22 10:49:34;;;;;;;8.88;4.30;;;14.70;99.90;;;;;;5984894;23;20027;-94
2022/09/22 10:52:24;;;;;;;10.65;5.15;;;14.80;99.90;;;;;;5984165;23;20020;-94
2022/09/22 10:54:52;;;;;;;13.02;4.38;;;14.80;99.90;;;;;;6007066;23;20030;-93
2022/09/22 10:57:27;;;;;;;9.60;4.55;;;15.00;99.90;;;;;;5982163;23;20079;-94
2022/09/22 11:00:09;;;;;;;8.63;4.60;;;15.10;99.90;;;;;;5983089;23;20094;-94
2022/09/22 11:03:02;;;;;;;9.32;4.60;;;15.20;99.90;;;;;;6007617;23;20030;-95
2022/09/22 11:14:14;;;;;;;9.60;6.20;;;15.50;99.90;;;;;;6008053;23;20060;-93
2022/09/22 11:17:24;;;;;;;10.63;7.05;;;15.70;99.90;;;;;;5983886;23;20023;-95
2022/09/22 11:20:15;;;;;;;11.07;7.30;;;15.70;99.90;;;;;;6031650;23;20493;-94
2022/09/22 11:23:02;;;;;;;10.70;6.68;;;15.70;99.90;;;;;;5984740;23;20346;-94
2022/09/22 11:26:00;;;;;;;9.65;6.40;;;15.70;99.90;;;;;;5984490;23;20072;-95
2022/09/22 11:28:44;;;;;;;10.30;6.07;;;15.70;99.90;;;;;;6007318;23;20015;-95
2022/09/22 11:31:37;;;;;;;11.95;7.28;;;15.80;99.90;;;;;;5985472;23;20019;-94
2022/09/22 11:34:34;;;;;;;12.80;7.13;;;15.80;99.90;;;;;;5945537;23;20068;-95
2022/09/22 11:37:24;;;;;;;11.43;7.03;;;15.80;99.90;;;;;;6000900;23;20015;-95
2022/09/22 11:39:59;;;;;;;10.63;6.40;;;15.80;99.90;;;;;;5984428;23;20023;-95
2022/09/22 11:42:35;;;;;;;11.48;7.28;;;15.70;99.90;;;;;;5984500;23;20023;-95
2022/09/22 11:45:20;;;;;;;10.13;6.65;;;15.70;99.90;;;;;;6008088;23;20018;-94
2022/09/22 11:47:48;;;;;;;10.65;6.47;;;15.70;99.90;;;;;;5983561;23;20412;-94
2022/09/22 11:50:42;;;;;;;9.90;6.65;;;15.70;99.90;;;;;;5983075;23;20050;-94
2022/09/22 11:53:15;;;;;;;10.43;6.07;;;15.80;99.90;;;;;;5984102;23;20269;-94
2022/09/22 11:56:05;;;;;;;12.02;6.78;;;15.90;99.90;;;;;;5984113;23;20055;-95
2022/09/22 11:58:33;;;;;;;11.23;6.43;;;16.00;99.90;;;;;;5984328;23;20016;-94
2022/09/22 12:01:16;;;;;;;12.13;7.20;;;16.10;99.90;;;;;;6006621;23;20534;-95
2022/09/22 12:03:49;;;;;;;8.85;6.50;;;16.20;99.90;;;;;;5984134;23;20020;-96
2022/09/22 12:06:20;;;;;;;11.68;7.55;;;16.10;99.90;;;;;;6007208;23;20016;-94
2022/09/22 12:09:01;;;;;;;9.90;6.05;;;16.20;99.90;;;;;;5983119;23;20338;-95
2022/09/22 12:11:27;;;;;;;10.98;6.00;;;16.20;99.90;;;;;;6007662;23;20015;-94
2022/09/22 12:13:56;;;;;;;11.65;6.47;;;16.20;99.90;;;;;;5983534;23;20047;-94
2022/09/22 12:16:41;;;;;;;9.52;6.28;;;16.30;99.90;;;;;;5983540;23;20021;-94
2022/09/22 12:19:44;;;;;;;9.27;5.20;;;16.20;99.90;;;;;;6008893;23;20091;-95
2022/09/22 12:22:21;;;;;;;9.57;4.95;;;16.20;99.90;;;;;;6007361;23;20016;-95
2022/09/22 12:24:48;;;;;;;10.65;5.30;;;16.20;99.90;;;;;;6007131;23;20065;-94
2022/09/22 12:27:26;;;;;;;9.18;4.50;;;16.20;99.90;;;;;;5983373;23;20016;-94
2022/09/22 12:30:04;;;;;;;11.73;5.82;;;16.40;99.90;;;;;;6007569;23;20016;-94
2022/09/22 12:32:40;;;;;;;11.40;5.70;;;16.40;99.90;;;;;;6007206;23;20385;-95
2022/09/22 12:35:16;;;;;;;11.05;5.65;;;16.50;99.90;;;;;;5983701;23;20046;-94
2022/09/22 12:37:41;;;;;;;10.73;5.63;;;16.60;99.90;;;;;;5983115;23;20022;-96
2022/09/22 12:40:13;;;;;;;10.13;5.82;;;16.50;99.90;;;;;;6007588;23;20103;-95
2022/09/22 12:42:42;;;;;;;8.98;5.55;;;16.60;99.90;;;;;;5984145;23;20071;-94
2022/09/22 12:45:41;;;;;;;10.27;5.53;;;16.70;99.90;;;;;;5983841;23;20080;-95
2022/09/22 12:48:15;;;;;;;9.65;5.63;;;16.60;99.90;;;;;;5983052;23;20022;-95
2022/09/22 12:50:45;;;;;;;9.52;6.15;;;16.50;99.90;;;;;;6006546;23;20338;-94
2022/09/22 12:53:28;;;;;;;11.70;6.18;;;16.50;99.90;;;;;;6007701;23;20016;-95
2022/09/22 12:55:55;;;;;;;11.15;5.60;;;16.40;99.90;;;;;;5983481;23;20011;-94
2022/09/22 12:58:22;;;;;;;9.68;5.30;;;16.30;99.90;;;;;;6006740;23;20012;-95
2022/09/22 13:00:49;;;;;;;9.27;4.90;;;16.30;99.90;;;;;;5983556;23;20027;-93
2022/09/22 13:03:24;;;;;;;12.57;5.25;;;16.20;99.90;;;;;;5983435;23;20308;-94
2022/09/22 13:05:54;;;;;;;11.75;5.47;;;16.20;99.90;;;;;;5982892;23;20102;-95
2022/09/22 13:08:24;;;;;;;8.85;5.65;;;16.30;99.90;;;;;;6007213;23;20020;-93
2022/09/22 13:11:01;;;;;;;10.38;5.15;;;16.40;99.90;;;;;;5983759;23;20027;-95
2022/09/22 13:13:30;;;;;;;9.07;4.97;;;16.30;99.90;;;;;;5985226;23;20019;-94
2022/09/22 13:16:01;;;;;;;9.05;4.60;;;16.40;99.90;;;;;;6009115;23;20020;-95
2022/09/22 13:18:37;;;;;;;9.02;4.47;;;16.60;99.90;;;;;;5984246;23;20085;-96
2022/09/22 13:21:12;;;;;;;7.90;4.10;;;16.70;99.90;;;;;;5983797;23;20051;-96
2022/09/22 13:23:37;;;;;;;10.45;4.15;;;16.80;99.90;;;;;;6007466;23;20022;-96
2022/09/22 13:26:11;;;;;;;8.77;3.60;;;16.80;99.90;;;;;;5984183;23;20454;-96
2022/09/22 13:28:36;;;;;;;8.70;3.60;;;16.70;99.90;;;;;;5984543;23;20035;-96